createdAt,value
2022-07-28T00:02:12.517Z,100756.27
2022-07-28T00:12:14.518Z,100757.21
2022-07-28T00:22:16.959Z,100764.25
2022-07-28T00:32:21.111Z,100775.48
2022-07-28T00:42:23.491Z,100783.70
2022-07-28T00:52:25.859Z,100783.27
2022-07-28T01:02:28.040Z,100782.13
2022-07-28T01:13:04.871Z,100788.23
2022-07-28T01:23:26.503Z,100793.10
2022-07-28T01:33:42.362Z,100798.73
2022-07-28T01:43:51.230Z,100804.41
2022-07-28T01:53:56.773Z,100796.13
2022-07-28T02:04:02.301Z,100792.88
2022-07-28T02:14:06.880Z,100793.22
2022-07-28T02:24:12.737Z,100801.15
2022-07-28T02:34:16.807Z,100806.73
2022-07-28T02:44:25.915Z,100813.54
2022-07-28T02:54:30.363Z,100822.45
2022-07-28T03:04:52.391Z,100821.87
2022-07-28T03:14:54.981Z,100833.64
2022-07-28T03:24:59.862Z,100849.40
2022-07-28T03:35:05.907Z,100853.73
2022-07-28T03:45:09.822Z,100860.45
2022-07-28T03:55:13.451Z,100873.22
2022-07-28T04:05:17.400Z,100883.80
2022-07-28T04:15:19.677Z,100890.62
2022-07-28T04:25:24.851Z,100892.77
2022-07-28T04:35:28.482Z,100899.48
2022-07-28T04:45:30.815Z,100909.65
2022-07-28T04:55:32.839Z,100913.98
2022-07-28T05:05:35.074Z,100911.42
2022-07-28T05:15:37.092Z,100910.92
2022-07-28T05:25:39.263Z,100912.38
2022-07-28T05:35:41.475Z,100920.98
2022-07-28T05:45:43.633Z,100919.63
2022-07-28T05:55:59.689Z,100919.23
2022-07-28T06:06:14.592Z,100921.50
2022-07-28T06:16:18.588Z,100925.21
2022-07-28T06:26:23.531Z,100926.95
2022-07-28T06:36:25.875Z,100926.27
2022-07-28T06:46:28.088Z,100930.13
2022-07-28T06:56:30.011Z,100938.90
2022-07-28T07:06:31.985Z,100946.13
2022-07-28T07:16:35.405Z,100943.91
2022-07-28T07:26:38.162Z,100939.46
2022-07-28T07:36:40.193Z,100942.76
2022-07-28T07:46:42.275Z,100948.73
2022-07-28T07:56:44.277Z,100950.58
2022-07-28T08:06:47.047Z,100953.78
2022-07-28T08:16:49.210Z,100952.46
2022-07-28T08:26:52.803Z,100950.74
2022-07-28T08:36:54.973Z,100940.17
2022-07-28T08:46:58.050Z,100946.37
2022-07-28T08:57:02.449Z,100946.45
2022-07-28T09:07:05.658Z,100949.60
2022-07-28T09:17:08.949Z,100954.23
2022-07-28T09:27:13.914Z,100953.20
2022-07-28T09:37:28.375Z,100951.27
2022-07-28T09:47:35.252Z,100939.42
2022-07-28T09:57:40.266Z,100940.27
2022-07-28T10:07:52.653Z,100943.48
2022-07-28T10:17:55.475Z,100933.82
2022-07-28T10:28:00.079Z,100911.04
2022-07-28T10:38:09.335Z,100900.70
2022-07-28T10:48:13.148Z,100900.02
2022-07-28T10:58:24.766Z,100905.20
2022-07-28T11:08:29.056Z,100913.23
2022-07-28T11:18:51.068Z,100923.68
2022-07-28T11:29:11.316Z,100920.02
2022-07-28T11:39:27.877Z,100915.21
2022-07-28T11:49:31.897Z,100912.14
2022-07-28T11:59:57.614Z,100904.71
2022-07-28T12:10:00.454Z,100895.39
2022-07-28T12:20:06.097Z,100894.67
2022-07-28T12:30:27.565Z,100898.70
2022-07-28T12:40:32.189Z,100899.70
2022-07-28T12:50:40.916Z,100893.36
2022-07-28T13:00:51.941Z,100896.87
2022-07-28T13:10:57.460Z,100899.36
2022-07-28T13:21:01.142Z,100902.10
2022-07-28T13:31:03.262Z,100900.71
2022-07-28T13:41:05.158Z,100897.73
2022-07-28T13:51:07.783Z,100898.15
2022-07-28T14:01:09.725Z,100902.88
2022-07-28T14:11:15.631Z,100901.84
2022-07-28T14:21:18.315Z,100904.64
2022-07-28T14:31:20.359Z,100906.45
2022-07-28T14:41:25.110Z,100912.48
2022-07-28T14:51:27.957Z,100910.58
2022-07-28T15:01:30.017Z,100906.52
2022-07-28T15:11:39.830Z,100909.38
2022-07-28T15:21:42.138Z,100907.92
2022-07-28T15:31:45.337Z,100913.71
2022-07-28T15:41:50.900Z,100906.89
2022-07-28T15:51:53.587Z,100906.48
2022-07-28T16:01:55.792Z,100899.08
2022-07-28T16:11:59.335Z,100900.96
2022-07-28T16:22:01.911Z,100904.80
2022-07-28T16:32:04.127Z,100903.88
2022-07-28T16:42:06.870Z,100902.14
2022-07-28T16:52:09.882Z,100899.46
2022-07-28T17:02:12.053Z,100892.16
2022-07-28T17:12:14.305Z,100901.41
2022-07-28T17:22:16.944Z,100907.56
2022-07-28T17:32:19.331Z,100917.66
2022-07-28T17:42:21.573Z,100927.02
2022-07-28T17:52:23.916Z,100931.98
2022-07-28T18:02:25.871Z,100935.73
2022-07-28T18:12:28.447Z,100939.77
2022-07-28T18:22:30.690Z,100944.05
2022-07-28T18:32:32.934Z,100948.06
2022-07-28T18:42:38.096Z,100954.86
2022-07-28T18:52:44.598Z,100961.34
2022-07-28T19:02:47.403Z,100961.59
2022-07-28T19:12:51.194Z,100966.92
2022-07-28T19:22:53.672Z,100970.67
2022-07-28T19:32:56.010Z,100983.26
2022-07-28T19:43:03.169Z,100984.84
2022-07-28T19:53:07.907Z,100987.85
2022-07-28T20:04:03.571Z,100993.66
2022-07-28T20:14:06.910Z,100997.73
2022-07-28T20:24:09.200Z,101001.51
2022-07-28T20:34:13.769Z,101008.65
2022-07-28T20:44:32.698Z,101016.44
2022-07-28T20:54:35.697Z,101020.37
2022-07-28T21:04:37.847Z,101028.35
2022-07-28T21:14:41.507Z,101034.52
2022-07-28T21:24:43.769Z,101046.56
2022-07-28T21:34:45.862Z,101058.05
2022-07-28T21:44:48.393Z,101057.12
2022-07-28T21:54:50.419Z,101072.41
2022-07-28T22:04:52.677Z,101083.21
2022-07-28T22:14:54.811Z,101085.69
2022-07-28T22:24:57.091Z,101080.77
2022-07-28T22:34:59.666Z,101083.91
2022-07-28T22:45:01.669Z,101092.39
2022-07-28T22:55:04.106Z,101105.42
2022-07-28T23:05:06.450Z,101110.05
2022-07-28T23:15:09.007Z,101107.45
2022-07-28T23:25:11.157Z,101107.95
2022-07-28T23:35:13.186Z,101110.47
2022-07-28T23:45:15.358Z,101109.02
2022-07-28T23:55:17.431Z,101116.03
